createdAt,value
2023-05-24T00:00:02.026Z,98387.94
2023-05-24T00:04:08.670Z,98382.75
2023-05-24T00:08:10.973Z,98378.88
2023-05-24T00:12:13.057Z,98376.56
2023-05-24T00:16:15.627Z,98383.88
2023-05-24T00:20:20.911Z,98378.28
2023-05-24T00:24:23.388Z,98384.66
2023-05-24T00:28:25.805Z,98383.78
2023-05-24T00:32:27.962Z,98376.63
2023-05-24T00:36:33.226Z,98382.97
2023-05-24T00:40:35.454Z,98380.84
2023-05-24T00:44:37.541Z,98379.84
2023-05-24T00:48:39.912Z,98396.06
2023-05-24T00:52:42.433Z,98396.91
2023-05-24T00:56:44.754Z,98389.66
2023-05-24T01:00:50.243Z,98381.25
2023-05-24T01:04:55.172Z,98387.38
2023-05-24T01:09:20.416Z,98373.97
2023-05-24T01:13:42.618Z,98375.06
2023-05-24T01:18:12.812Z,98372.25
2023-05-24T01:22:46.243Z,98378.88
2023-05-24T01:27:08.606Z,98379.66
2023-05-24T01:31:12.913Z,98379.19
2023-05-24T01:35:15.088Z,98375.34
2023-05-24T01:39:23.332Z,98371.78
2023-05-24T01:43:48.931Z,98369.88
2023-05-24T01:48:04.692Z,98379.81
2023-05-24T01:52:12.962Z,98377.63
2023-05-24T01:56:17.316Z,98387.53
2023-05-24T02:00:20.677Z,98376.78
2023-05-24T02:04:24.983Z,98374.59
2023-05-24T02:08:31.092Z,98377.50
2023-05-24T02:12:34.966Z,98375.06
2023-05-24T02:16:42.979Z,98376.19
2023-05-24T02:20:45.478Z,98377.28
2023-05-24T02:24:48.665Z,98378.31
2023-05-24T02:28:50.913Z,98383.81
2023-05-24T02:32:53.701Z,98384.19
2023-05-24T02:36:55.994Z,98377.78
2023-05-24T02:40:58.119Z,98385.03
2023-05-24T02:45:00.400Z,98389.84
2023-05-24T02:49:02.569Z,98372.78
2023-05-24T02:53:04.684Z,98385.03
2023-05-24T02:57:07.469Z,98380.22
2023-05-24T03:01:09.951Z,98372.41
2023-05-24T03:05:12.466Z,98373.72
2023-05-24T03:09:16.789Z,98375.53
2023-05-24T03:13:19.993Z,98377.97
2023-05-24T03:17:22.456Z,98382.59
2023-05-24T03:21:25.467Z,98374.28
2023-05-24T03:25:27.631Z,98375.34
2023-05-24T03:29:29.856Z,98386.06
2023-05-24T03:33:32.941Z,98391.88
2023-05-24T03:37:35.051Z,98394.59
2023-05-24T03:41:37.188Z,98396.78
2023-05-24T03:45:40.214Z,98394.63
2023-05-24T03:49:42.580Z,98391.34
2023-05-24T03:53:45.497Z,98393.19
2023-05-24T03:57:47.692Z,98399.56
2023-05-24T04:01:50.001Z,98406.47
2023-05-24T04:05:54.710Z,98411.25
2023-05-24T04:09:56.841Z,98415.00
2023-05-24T04:14:02.345Z,98415.22
2023-05-24T04:18:07.686Z,98417.09
2023-05-24T04:22:11.062Z,98422.09
2023-05-24T04:26:14.289Z,98415.19
2023-05-24T04:30:16.918Z,98416.28
2023-05-24T04:34:22.411Z,98416.06
2023-05-24T04:38:25.717Z,98419.13
2023-05-24T04:42:32.488Z,98417.56
2023-05-24T04:46:36.324Z,98419.28
2023-05-24T04:50:38.795Z,98427.41
2023-05-24T04:54:40.833Z,98423.44
2023-05-24T04:58:43.046Z,98423.13
2023-05-24T05:02:45.343Z,98428.66
2023-05-24T05:06:48.360Z,98423.56
2023-05-24T05:10:50.550Z,98423.88
2023-05-24T05:19:37.584Z,98408.53
2023-05-24T05:23:39.909Z,98406.34
2023-05-24T05:27:42.171Z,98402.22
2023-05-24T05:31:44.214Z,98405.84
2023-05-24T05:35:46.554Z,98414.31
2023-05-24T05:39:48.630Z,98412.91
2023-05-24T05:43:50.928Z,98416.59
2023-05-24T05:47:53.172Z,98414.06
2023-05-24T05:51:55.245Z,98413.31
2023-05-24T05:55:57.295Z,98412.84
2023-05-24T05:59:59.833Z,98416.53
2023-05-24T06:04:02.237Z,98414.81
2023-05-24T06:08:04.876Z,98409.38
2023-05-24T06:12:07.291Z,98406.75
2023-05-24T06:16:10.038Z,98408.50
2023-05-24T06:20:15.815Z,98417.75
2023-05-24T06:24:21.800Z,98422.69
2023-05-24T06:28:24.096Z,98425.09
2023-05-24T06:32:26.252Z,98424.78
2023-05-24T06:36:28.358Z,98426.59
2023-05-24T06:40:30.435Z,98418.28
2023-05-24T06:44:34.572Z,98420.97
2023-05-24T06:48:37.188Z,98416.50
2023-05-24T06:52:39.226Z,98421.56
2023-05-24T06:56:41.297Z,98413.91
2023-05-24T07:00:43.724Z,98420.22
2023-05-24T07:04:46.222Z,98421.91
2023-05-24T07:08:48.299Z,98424.31
2023-05-24T07:12:50.415Z,98425.31
2023-05-24T07:16:52.696Z,98423.75
2023-05-24T07:20:55.072Z,98430.44
2023-05-24T07:24:57.144Z,98425.84
2023-05-24T07:28:59.188Z,98427.78
2023-05-24T07:33:02.517Z,98419.69
2023-05-24T07:37:04.873Z,98420.47
2023-05-24T07:41:07.771Z,98412.63
2023-05-24T07:45:10.600Z,98412.13
2023-05-24T07:49:12.832Z,98410.84
2023-05-24T07:53:18.778Z,98402.88
2023-05-24T07:57:21.338Z,98403.94
2023-05-24T08:01:23.666Z,98402.28
2023-05-24T08:05:27.761Z,98401.25
2023-05-24T08:09:30.294Z,98400.84
2023-05-24T08:13:32.334Z,98403.97
2023-05-24T08:17:34.736Z,98401.75
2023-05-24T08:21:37.797Z,98406.50
2023-05-24T08:25:41.324Z,98400.66
2023-05-24T08:29:43.612Z,98402.78
2023-05-24T08:33:45.837Z,98392.47
2023-05-24T08:37:49.717Z,98391.38
2023-05-24T08:42:08.106Z,98391.72
2023-05-24T08:46:12.964Z,98382.97
2023-05-24T08:50:15.399Z,98383.38
2023-05-24T08:54:19.334Z,98381.41
2023-05-24T08:58:21.863Z,98384.13
2023-05-24T09:02:24.599Z,98391.22
2023-05-24T09:06:27.056Z,98388.50
2023-05-24T09:10:41.154Z,98382.44
2023-05-24T09:14:52.577Z,98380.16
2023-05-24T09:18:54.794Z,98382.03
2023-05-24T09:22:59.218Z,98378.72
2023-05-24T09:27:07.122Z,98376.72
2023-05-24T09:31:09.302Z,98380.97
2023-05-24T09:35:12.952Z,98368.78
2023-05-24T09:39:17.153Z,98368.47
2023-05-24T09:43:19.731Z,98374.66
2023-05-24T09:47:22.031Z,98375.25
2023-05-24T09:51:24.782Z,98370.00
2023-05-24T09:55:27.726Z,98368.34
2023-05-24T09:59:36.868Z,98361.06
2023-05-24T10:03:39.584Z,98360.47
2023-05-24T10:07:42.593Z,98354.53
2023-05-24T10:11:45.836Z,98350.50
2023-05-24T10:15:48.379Z,98343.00
2023-05-24T10:19:51.893Z,98341.44
2023-05-24T10:23:59.739Z,98347.50
2023-05-24T10:28:07.439Z,98336.09
2023-05-24T10:32:09.928Z,98337.44
2023-05-24T10:36:16.122Z,98327.63
2023-05-24T10:40:22.886Z,98329.50
2023-05-24T10:44:29.347Z,98323.03
2023-05-24T10:48:39.307Z,98319.72
2023-05-24T10:52:41.960Z,98318.72
2023-05-24T10:56:45.811Z,98317.03
2023-05-24T11:00:52.320Z,98303.75
2023-05-24T11:04:56.738Z,98295.34
2023-05-24T11:09:01.185Z,98287.00
2023-05-24T11:13:04.361Z,98289.00
2023-05-24T11:17:10.751Z,98286.75
2023-05-24T11:21:12.888Z,98280.88
2023-05-24T11:25:14.992Z,98287.97
2023-05-24T11:29:23.076Z,98283.66
2023-05-24T11:33:25.628Z,98282.47
2023-05-24T11:37:38.532Z,98279.19
2023-05-24T11:41:48.182Z,98275.22
2023-05-24T11:45:51.129Z,98275.69
2023-05-24T11:49:53.302Z,98273.06
2023-05-24T11:53:56.786Z,98268.59
2023-05-24T11:57:59.707Z,98265.63
2023-05-24T12:02:05.685Z,98257.31
2023-05-24T12:06:07.892Z,98257.81
2023-05-24T12:10:13.969Z,98266.31
2023-05-24T12:14:23.026Z,98255.72
2023-05-24T12:18:26.635Z,98240.38
2023-05-24T12:22:32.024Z,98237.22
2023-05-24T12:26:45.214Z,98232.78
2023-05-24T12:30:50.050Z,98225.69
2023-05-24T12:34:53.624Z,98222.66
2023-05-24T12:38:59.508Z,98204.13
2023-05-24T12:43:04.189Z,98212.69
2023-05-24T12:47:08.845Z,98201.09
2023-05-24T12:51:11.511Z,98195.28
2023-05-24T12:55:15.526Z,98195.84
2023-05-24T12:59:17.716Z,98194.97
2023-05-24T13:03:19.795Z,98182.22
2023-05-24T13:07:21.955Z,98179.72
2023-05-24T13:11:25.309Z,98173.53
2023-05-24T13:15:27.501Z,98162.91
2023-05-24T13:19:29.752Z,98168.28
2023-05-24T13:23:34.047Z,98177.78
2023-05-24T13:27:36.335Z,98161.38
2023-05-24T13:31:38.732Z,98163.75
2023-05-24T13:35:42.143Z,98159.03
2023-05-24T13:39:44.615Z,98157.59
2023-05-24T13:43:47.262Z,98154.16
2023-05-24T13:47:50.177Z,98142.84
2023-05-24T13:51:55.497Z,98138.22
2023-05-24T13:55:59.528Z,98144.88
2023-05-24T14:00:02.294Z,98146.81
2023-05-24T14:04:07.940Z,98137.44
2023-05-24T14:08:10.147Z,98135.09
2023-05-24T14:12:13.881Z,98138.63
2023-05-24T14:16:16.182Z,98142.75
2023-05-24T14:20:18.522Z,98131.69
2023-05-24T14:24:21.446Z,98129.78
2023-05-24T14:28:23.794Z,98127.13
2023-05-24T14:32:26.022Z,98119.78
2023-05-24T14:36:28.225Z,98119.38
2023-05-24T14:40:30.482Z,98120.13
2023-05-24T14:44:32.957Z,98120.09
2023-05-24T14:48:37.709Z,98133.38
2023-05-24T14:52:39.738Z,98137.31
2023-05-24T14:56:42.009Z,98145.22
2023-05-24T15:00:44.538Z,98141.72
2023-05-24T15:04:47.179Z,98137.00
2023-05-24T15:08:49.279Z,98153.72
2023-05-24T15:12:52.124Z,98152.16
2023-05-24T15:16:54.254Z,98133.81
2023-05-24T15:20:56.781Z,98134.03
2023-05-24T15:24:59.370Z,98134.63
2023-05-24T15:29:04.038Z,98139.38
2023-05-24T15:33:06.308Z,98141.41
2023-05-24T15:37:08.670Z,98150.03
2023-05-24T15:41:11.046Z,98152.38
2023-05-24T15:45:13.468Z,98146.22
2023-05-24T15:49:15.883Z,98137.75
2023-05-24T15:53:19.820Z,98130.41
2023-05-24T15:57:23.926Z,98129.16
2023-05-24T16:01:26.224Z,98127.03
2023-05-24T16:05:28.707Z,98135.16
2023-05-24T16:09:31.311Z,98169.38
2023-05-24T16:13:33.456Z,98189.25
2023-05-24T16:17:35.740Z,98190.44
2023-05-24T16:21:38.227Z,98188.28
2023-05-24T16:25:40.443Z,98191.97
2023-05-24T16:29:45.727Z,98215.19
2023-05-24T16:33:47.971Z,98214.66
2023-05-24T16:37:51.505Z,98210.38
2023-05-24T16:41:53.432Z,98214.59
2023-05-24T16:45:56.147Z,98213.72
2023-05-24T16:49:58.301Z,98230.81
2023-05-24T16:54:00.441Z,98250.09
2023-05-24T16:58:02.576Z,98269.53
2023-05-24T17:02:05.985Z,98276.88
2023-05-24T17:06:08.541Z,98276.88
2023-05-24T17:10:10.852Z,98279.03
2023-05-24T17:14:13.290Z,98283.66
2023-05-24T17:18:15.635Z,98284.34
2023-05-24T17:22:17.864Z,98268.88
2023-05-24T17:26:20.042Z,98260.31
2023-05-24T17:30:23.637Z,98276.31
2023-05-24T17:34:26.052Z,98274.63
2023-05-24T17:38:29.011Z,98277.66
2023-05-24T17:42:31.145Z,98279.00
2023-05-24T17:46:36.033Z,98268.78
2023-05-24T17:50:38.948Z,98261.19
2023-05-24T17:54:43.332Z,98256.81
2023-05-24T17:58:47.599Z,98250.25
2023-05-24T18:02:49.895Z,98261.22
2023-05-24T18:06:51.995Z,98255.31
2023-05-24T18:10:54.157Z,98259.38
2023-05-24T18:14:56.399Z,98261.84
2023-05-24T18:18:58.734Z,98268.53
2023-05-24T18:23:00.868Z,98263.47
2023-05-24T18:27:03.392Z,98266.69
2023-05-24T18:31:13.458Z,98274.28
2023-05-24T18:35:15.881Z,98282.53
2023-05-24T18:39:19.133Z,98298.91
2023-05-24T18:43:21.348Z,98319.31
2023-05-24T18:47:23.852Z,98321.00
2023-05-24T18:51:26.193Z,98341.19
2023-05-24T18:55:28.625Z,98349.56
2023-05-24T18:59:31.913Z,98353.34
2023-05-24T19:03:34.253Z,98358.22
2023-05-24T19:07:37.560Z,98351.44
2023-05-24T19:11:40.624Z,98368.88
2023-05-24T19:15:43.185Z,98372.97
2023-05-24T19:19:46.325Z,98362.69
2023-05-24T19:23:48.675Z,98318.34
2023-05-24T19:31:56.450Z,98317.88
2023-05-24T19:35:58.867Z,98327.38
2023-05-24T19:40:01.400Z,98310.00
2023-05-24T19:44:03.847Z,98314.72
2023-05-24T19:48:09.634Z,98314.06
2023-05-24T19:52:12.160Z,98353.34
2023-05-24T19:56:14.541Z,98363.66
2023-05-24T20:00:17.200Z,98359.16
2023-05-24T20:04:21.092Z,98366.91
2023-05-24T20:08:26.440Z,98364.44
2023-05-24T20:12:30.969Z,98355.06
2023-05-24T20:16:36.573Z,98363.69
2023-05-24T20:20:44.199Z,98355.41
2023-05-24T20:24:46.840Z,98348.91
2023-05-24T20:28:52.291Z,98356.88
2023-05-24T20:32:55.473Z,98356.25
2023-05-24T20:36:59.516Z,98356.56
2023-05-24T20:41:04.384Z,98353.78
2023-05-24T20:45:08.084Z,98358.63
2023-05-24T20:49:11.746Z,98366.91
2023-05-24T20:53:14.182Z,98365.03
2023-05-24T20:57:16.764Z,98373.78
2023-05-24T21:01:20.240Z,98371.38
2023-05-24T21:05:22.947Z,98376.94
2023-05-24T21:09:25.581Z,98377.97
2023-05-24T21:13:28.576Z,98379.16
2023-05-24T21:17:31.236Z,98387.75
2023-05-24T21:21:33.865Z,98383.06
2023-05-24T21:25:36.423Z,98390.16
2023-05-24T21:29:41.396Z,98394.34
2023-05-24T21:33:44.583Z,98388.63
2023-05-24T21:37:47.049Z,98390.50
2023-05-24T21:41:49.463Z,98395.91
2023-05-24T21:45:51.854Z,98393.34
2023-05-24T21:49:55.188Z,98398.22
2023-05-24T21:53:57.520Z,98403.59
2023-05-24T21:58:00.792Z,98401.88
2023-05-24T22:02:03.388Z,98405.38
2023-05-24T22:06:06.576Z,98414.69
2023-05-24T22:10:09.285Z,98406.56
2023-05-24T22:14:11.769Z,98396.88
2023-05-24T22:18:17.661Z,98406.94
2023-05-24T22:22:20.906Z,98408.41
2023-05-24T22:26:24.512Z,98416.91
2023-05-24T22:30:27.194Z,98422.72
2023-05-24T22:34:29.898Z,98426.69
2023-05-24T22:38:32.309Z,98417.66
2023-05-24T22:42:34.731Z,98428.13
2023-05-24T22:46:38.174Z,98426.47
2023-05-24T22:50:42.509Z,98423.66
2023-05-24T22:54:45.001Z,98425.59
2023-05-24T22:58:47.360Z,98426.13
2023-05-24T23:02:49.777Z,98432.16
2023-05-24T23:06:53.484Z,98421.41
2023-05-24T23:10:58.350Z,98414.19
2023-05-24T23:15:00.778Z,98410.41
2023-05-24T23:19:06.053Z,98413.38
2023-05-24T23:23:08.801Z,98398.69
2023-05-24T23:27:11.593Z,98405.19
2023-05-24T23:31:14.207Z,98405.06
2023-05-24T23:35:17.030Z,98412.16
2023-05-24T23:39:20.215Z,98406.00
2023-05-24T23:43:22.698Z,98405.03
2023-05-24T23:47:25.356Z,98404.69
2023-05-24T23:51:30.178Z,98403.81
2023-05-24T23:55:32.608Z,98405.75
2023-05-24T23:59:34.982Z,98414.53
